Time;durP1;ratioP1;P1;durP2;ratioP2;P2;SDS_P1;SDS_P2;PMS_P1;PMS_P2;Temp;Humidity;BMP_temperature;BMP_pressure;BME280_temperature;BME280_humidity;BME280_pressure;Samples;Min_cycle;Max_cycle;Signal;HPM_P1;HPM_P2
2023/01/25 00:01:30;;;;;;;30.30;16.40;;;3.10;48.20;;;;;;6031615;23;20447;-60
2023/01/25 00:03:57;;;;;;;28.50;15.20;;;3.10;48.20;;;;;;6032552;23;20957;-61
2023/01/25 00:06:24;;;;;;;30.17;15.60;;;3.10;48.20;;;;;;6031358;23;20424;-61
2023/01/25 00:08:51;;;;;;;31.23;14.80;;;3.10;48.20;;;;;;6044085;23;20439;-61
2023/01/25 00:11:19;;;;;;;28.43;15.67;;;3.10;48.30;;;;;;6034709;23;20431;-61
2023/01/25 00:13:47;;;;;;;30.73;16.00;;;3.10;48.30;;;;;;6033510;23;20455;-61
2023/01/25 00:16:13;;;;;;;33.23;17.47;;;3.10;48.20;;;;;;6033291;23;20471;-63
2023/01/25 00:18:40;;;;;;;29.53;15.07;;;3.10;48.40;;;;;;6033892;23;20424;-61
2023/01/25 00:21:14;;;;;;;31.77;16.40;;;3.10;48.40;;;;;;6034681;23;20427;-60
2023/01/25 00:23:40;;;;;;;29.27;16.60;;;3.10;48.50;;;;;;6033547;23;20424;-61
2023/01/25 00:26:07;;;;;;;27.50;15.90;;;3.10;48.30;;;;;;6034375;23;20420;-61
2023/01/25 00:28:34;;;;;;;33.13;16.43;;;3.10;48.20;;;;;;6032535;23;20431;-61
2023/01/25 00:31:04;;;;;;;31.23;16.73;;;3.10;48.00;;;;;;6034203;23;20446;-61
2023/01/25 00:33:40;;;;;;;28.60;14.90;;;3.10;48.10;;;;;;6033137;23;20452;-61
2023/01/25 00:36:28;;;;;;;31.93;16.90;;;3.00;48.20;;;;;;6033656;23;20411;-61
2023/01/25 00:38:57;;;;;;;30.40;15.40;;;2.90;48.70;;;;;;6032700;23;20427;-61
2023/01/25 00:41:24;;;;;;;35.13;15.43;;;2.80;48.80;;;;;;6033482;23;20424;-61
2023/01/25 00:43:50;;;;;;;30.40;17.50;;;2.80;48.80;;;;;;6032435;23;20468;-63
2023/01/25 00:46:19;;;;;;;33.87;17.60;;;2.80;49.00;;;;;;6033636;23;20423;-62
2023/01/25 00:48:46;;;;;;;30.93;16.80;;;2.80;49.10;;;;;;6033531;23;20759;-61
2023/01/25 00:51:12;;;;;;;29.30;15.10;;;2.80;49.00;;;;;;6034409;23;20424;-61
2023/01/25 00:53:39;;;;;;;31.57;16.73;;;2.80;49.10;;;;;;6032664;23;20525;-60
2023/01/25 00:56:06;;;;;;;33.27;16.03;;;2.90;49.20;;;;;;6033149;23;20428;-61
2023/01/25 00:58:33;;;;;;;34.97;16.60;;;2.90;49.00;;;;;;6034092;23;20424;-61
2023/01/25 01:01:00;;;;;;;34.33;16.43;;;2.80;48.80;;;;;;6032801;23;20451;-61
2023/01/25 01:03:28;;;;;;;33.77;18.20;;;2.90;48.90;;;;;;6033462;23;20427;-61
2023/01/25 01:06:02;;;;;;;33.33;16.37;;;2.90;49.00;;;;;;6032305;23;20421;-61
2023/01/25 01:08:29;;;;;;;32.07;16.70;;;2.90;49.10;;;;;;6034066;23;20420;-61
2023/01/25 01:11:00;;;;;;;34.47;15.60;;;2.90;48.80;;;;;;6032263;23;20987;-60
2023/01/25 01:13:27;;;;;;;29.00;15.27;;;2.90;48.80;;;;;;6033716;23;20456;-61
2023/01/25 01:15:54;;;;;;;23.80;13.37;;;2.80;48.60;;;;;;6041198;23;20427;-61
2023/01/25 01:18:21;;;;;;;26.93;13.30;;;2.80;48.70;;;;;;6033895;23;20420;-61
2023/01/25 01:20:53;;;;;;;28.30;14.53;;;2.80;48.80;;;;;;6033615;23;20426;-61
2023/01/25 01:23:20;;;;;;;29.37;14.80;;;2.80;48.80;;;;;;6034013;23;20420;-62
2023/01/25 01:25:47;;;;;;;27.20;15.30;;;2.80;48.70;;;;;;6033192;23;20444;-62
2023/01/25 01:28:14;;;;;;;26.40;14.20;;;2.80;48.70;;;;;;6032292;23;20426;-61
2023/01/25 01:30:40;;;;;;;30.50;14.73;;;2.90;48.60;;;;;;6032866;23;20436;-62
2023/01/25 01:33:08;;;;;;;31.03;15.20;;;2.80;48.50;;;;;;6032465;23;20424;-62
2023/01/25 01:35:34;;;;;;;31.90;15.43;;;2.80;48.70;;;;;;6033588;23;20440;-62
2023/01/25 01:38:02;;;;;;;30.20;14.63;;;2.80;48.80;;;;;;6032430;23;20914;-62
2023/01/25 01:40:29;;;;;;;31.30;15.23;;;2.80;48.80;;;;;;6034599;23;20424;-62
2023/01/25 01:43:01;;;;;;;28.50;14.10;;;2.70;48.90;;;;;;6033860;23;20424;-62
2023/01/25 01:45:48;;;;;;;26.80;13.57;;;2.70;48.90;;;;;;6033672;23;20440;-61
2023/01/25 01:48:18;;;;;;;26.93;13.03;;;2.70;49.00;;;;;;6032956;23;20428;-62
2023/01/25 01:50:45;;;;;;;25.37;14.37;;;2.70;49.00;;;;;;6033250;23;20431;-61
2023/01/25 01:53:14;;;;;;;29.50;15.47;;;2.80;49.00;;;;;;6033558;23;20424;-61
2023/01/25 01:55:41;;;;;;;23.77;13.43;;;2.80;48.90;;;;;;6033770;23;20436;-62
2023/01/25 01:58:08;;;;;;;24.97;13.60;;;2.80;48.90;;;;;;6032596;23;20416;-61
2023/01/25 02:00:38;;;;;;;23.07;13.97;;;2.90;48.70;;;;;;6033113;23;20438;-61
2023/01/25 02:03:06;;;;;;;23.20;13.17;;;2.90;48.40;;;;;;6033799;23;20408;-62
2023/01/25 02:05:40;;;;;;;24.83;12.10;;;2.80;48.20;;;;;;6032303;23;20436;-61
2023/01/25 02:08:11;;;;;;;24.00;12.70;;;2.80;48.20;;;;;;6033163;23;20403;-61
2023/01/25 02:10:39;;;;;;;24.10;12.90;;;2.80;48.20;;;;;;6033613;23;20424;-62
2023/01/25 02:13:06;;;;;;;26.27;13.40;;;2.80;48.30;;;;;;6031435;23;20427;-61
2023/01/25 02:15:38;;;;;;;25.40;13.73;;;2.80;48.20;;;;;;6032214;23;20455;-61
2023/01/25 02:18:05;;;;;;;23.23;12.67;;;2.80;48.20;;;;;;6033491;23;20412;-61
2023/01/25 02:20:36;;;;;;;22.87;12.33;;;2.80;48.20;;;;;;6032917;23;20446;-62
2023/01/25 02:23:09;;;;;;;21.50;11.47;;;2.80;48.10;;;;;;6033672;23;20878;-60
2023/01/25 02:25:40;;;;;;;26.67;13.63;;;2.80;47.90;;;;;;6032558;23;20444;-60
2023/01/25 02:28:13;;;;;;;20.43;11.37;;;2.80;47.90;;;;;;6033949;23;20420;-61
2023/01/25 02:30:40;;;;;;;20.60;10.93;;;2.80;48.00;;;;;;6030730;23;20436;-61
2023/01/25 02:33:07;;;;;;;21.07;10.90;;;2.60;48.10;;;;;;6033386;23;20726;-61
2023/01/25 02:35:41;;;;;;;22.10;10.80;;;2.60;48.40;;;;;;6032933;23;20451;-60
2023/01/25 02:38:11;;;;;;;24.43;13.17;;;2.50;48.70;;;;;;6033470;23;20404;-61
2023/01/25 02:40:45;;;;;;;23.33;11.80;;;2.50;48.80;;;;;;6031763;23;20917;-62
2023/01/25 02:43:12;;;;;;;19.90;11.03;;;2.50;48.80;;;;;;6034404;23;20468;-60
2023/01/25 02:45:39;;;;;;;22.97;12.13;;;2.50;49.20;;;;;;6034539;23;20522;-60
2023/01/25 02:48:06;;;;;;;22.77;12.00;;;2.50;49.00;;;;;;6045052;23;20455;-61
2023/01/25 02:50:33;;;;;;;22.40;12.10;;;2.50;49.00;;;;;;6034907;23;20427;-62
2023/01/25 02:52:59;;;;;;;28.17;12.10;;;2.60;48.90;;;;;;6034875;23;20905;-61
2023/01/25 02:55:26;;;;;;;24.87;12.37;;;2.60;48.80;;;;;;6034333;23;20474;-62
2023/01/25 02:57:54;;;;;;;23.70;13.03;;;2.60;48.70;;;;;;6034999;23;20424;-61
2023/01/25 03:00:21;;;;;;;24.20;12.70;;;2.70;48.70;;;;;;6033662;23;20420;-61
2023/01/25 03:02:48;;;;;;;25.57;13.40;;;2.70;48.70;;;;;;6035411;23;20420;-62
2023/01/25 03:05:14;;;;;;;22.60;12.97;;;2.70;48.60;;;;;;6034603;23;20442;-61
2023/01/25 03:07:41;;;;;;;24.87;13.90;;;2.70;48.50;;;;;;6034381;23;20424;-61
2023/01/25 03:10:09;;;;;;;26.70;13.47;;;2.70;48.30;;;;;;6034640;23;20420;-61
2023/01/25 03:12:36;;;;;;;23.43;13.10;;;2.70;48.30;;;;;;6034643;23;20424;-61
2023/01/25 03:15:05;;;;;;;18.90;12.17;;;2.70;48.20;;;;;;6034740;23;20448;-62
2023/01/25 03:17:32;;;;;;;23.93;11.60;;;2.70;48.20;;;;;;6034220;23;20443;-62
2023/01/25 03:19:58;;;;;;;21.93;11.77;;;2.70;47.90;;;;;;6034679;23;20420;-62
2023/01/25 03:22:25;;;;;;;20.53;12.00;;;2.70;48.00;;;;;;6034906;23;20420;-62
2023/01/25 03:24:52;;;;;;;20.67;10.87;;;2.70;48.00;;;;;;6034308;23;20447;-61
2023/01/25 03:27:19;;;;;;;20.27;11.47;;;2.60;47.80;;;;;;6034868;23;20424;-62
2023/01/25 03:29:46;;;;;;;24.73;11.90;;;2.60;47.90;;;;;;6031892;23;20424;-62
2023/01/25 03:32:14;;;;;;;23.07;13.50;;;2.50;48.30;;;;;;6033590;23;20444;-62
2023/01/25 03:34:41;;;;;;;25.67;13.80;;;2.60;48.40;;;;;;6033701;23;20467;-63
2023/01/25 03:37:07;;;;;;;21.40;10.73;;;2.50;48.50;;;;;;6034686;23;20424;-62
2023/01/25 03:39:34;;;;;;;25.70;13.33;;;2.50;48.70;;;;;;6033232;23;20432;-62
2023/01/25 03:42:01;;;;;;;25.37;12.90;;;2.50;48.90;;;;;;6034741;23;20428;-62
2023/01/25 03:44:27;;;;;;;25.93;13.87;;;2.60;48.50;;;;;;6035169;23;20435;-62
2023/01/25 03:46:54;;;;;;;25.57;14.77;;;2.60;48.50;;;;;;6035497;23;20490;-62
2023/01/25 03:49:22;;;;;;;25.50;13.40;;;2.60;48.60;;;;;;6034733;23;20428;-60
2023/01/25 03:51:49;;;;;;;28.37;14.10;;;2.60;48.40;;;;;;6034170;23;20420;-60
2023/01/25 03:54:16;;;;;;;30.77;15.63;;;2.60;48.30;;;;;;6034304;23;20467;-61
2023/01/25 03:56:43;;;;;;;28.90;15.27;;;2.60;48.30;;;;;;6034613;23;20439;-60
2023/01/25 03:59:10;;;;;;;24.97;12.47;;;2.60;48.60;;;;;;6035033;23;20424;-61
2023/01/25 04:01:37;;;;;;;25.40;13.83;;;2.60;48.30;;;;;;6033564;23;20439;-61
2023/01/25 04:04:04;;;;;;;23.50;13.50;;;2.60;48.40;;;;;;6034829;23;20899;-61
2023/01/25 04:06:32;;;;;;;25.03;13.87;;;2.70;48.60;;;;;;6034099;23;20420;-61
2023/01/25 04:09:00;;;;;;;29.10;13.10;;;2.70;48.30;;;;;;6034930;23;20424;-61
2023/01/25 04:11:26;;;;;;;28.03;15.90;;;2.70;48.20;;;;;;6034081;23;20424;-62
2023/01/25 04:13:54;;;;;;;25.43;13.40;;;2.70;48.20;;;;;;6034665;23;20787;-61
2023/01/25 04:16:20;;;;;;;29.27;15.23;;;2.70;48.10;;;;;;6034844;23;20405;-61
2023/01/25 04:18:47;;;;;;;30.00;14.67;;;2.70;48.30;;;;;;6034313;23;20443;-61
2023/01/25 04:21:14;;;;;;;29.10;14.07;;;2.70;48.20;;;;;;6033511;23;20835;-62
2023/01/25 04:23:42;;;;;;;29.43;14.30;;;2.70;48.30;;;;;;6034709;23;20446;-61
2023/01/25 04:26:11;;;;;;;32.47;16.53;;;2.70;48.30;;;;;;6034157;23;20424;-63
2023/01/25 04:28:38;;;;;;;27.90;14.03;;;2.70;48.20;;;;;;6031876;23;20420;-61
2023/01/25 04:31:05;;;;;;;25.70;14.43;;;2.70;48.10;;;;;;6032290;23;20467;-61
2023/01/25 04:33:33;;;;;;;28.00;14.20;;;2.70;48.10;;;;;;6033711;23;20420;-60
2023/01/25 04:36:00;;;;;;;26.53;14.13;;;2.70;48.20;;;;;;6029875;23;20444;-61
2023/01/25 04:38:27;;;;;;;29.07;14.73;;;2.70;48.20;;;;;;6034283;23;20430;-61
2023/01/25 04:40:55;;;;;;;28.33;15.20;;;2.70;48.30;;;;;;6031744;23;20424;-60
2023/01/25 04:43:23;;;;;;;26.83;13.23;;;2.70;48.30;;;;;;6032208;23;21285;-61
2023/01/25 04:45:49;;;;;;;26.77;12.93;;;2.70;48.30;;;;;;6030294;23;20503;-60
2023/01/25 04:48:16;;;;;;;24.07;13.30;;;2.70;48.30;;;;;;6031928;23;20420;-61
2023/01/25 04:50:43;;;;;;;28.37;14.20;;;2.70;48.20;;;;;;6033759;23;20420;-61
2023/01/25 04:53:12;;;;;;;31.20;14.23;;;2.60;48.30;;;;;;6032754;23;20421;-64
2023/01/25 04:55:38;;;;;;;25.80;14.30;;;2.60;48.40;;;;;;6031680;23;20444;-62
2023/01/25 04:58:07;;;;;;;27.30;13.57;;;2.60;48.30;;;;;;6033694;23;20479;-61
2023/01/25 05:00:33;;;;;;;31.67;15.07;;;2.70;48.20;;;;;;6031084;23;20440;-61
2023/01/25 05:03:00;;;;;;;30.00;14.40;;;2.70;48.30;;;;;;6033889;23;20880;-61
2023/01/25 05:05:27;;;;;;;29.47;13.40;;;2.70;48.30;;;;;;6031416;23;20436;-61
2023/01/25 05:07:54;;;;;;;31.10;13.60;;;2.70;48.40;;;;;;6032436;23;20432;-60
2023/01/25 05:10:21;;;;;;;26.93;14.13;;;2.70;48.30;;;;;;6033041;23;20921;-60
2023/01/25 05:12:47;;;;;;;29.30;13.73;;;2.80;48.40;;;;;;6031811;23;20455;-60
2023/01/25 05:15:15;;;;;;;30.83;15.33;;;2.70;48.30;;;;;;6033461;23;20452;-61
2023/01/25 05:17:42;;;;;;;28.00;14.80;;;2.60;48.40;;;;;;6032559;23;20420;-62
2023/01/25 05:20:10;;;;;;;31.97;16.53;;;2.60;48.60;;;;;;6034653;23;20427;-59
2023/01/25 05:22:37;;;;;;;30.67;14.77;;;2.60;48.70;;;;;;6032928;23;20427;-59
2023/01/25 05:26:58;;;;;;;29.00;14.17;;;2.60;48.90;;;;;;6034406;23;20442;-59
2023/01/25 05:27:50;;;;;;;34.67;14.80;;;2.60;48.90;;;;;;6033011;23;20982;-59
2023/01/25 05:30:18;;;;;;;29.33;14.00;;;2.60;48.80;;;;;;6033461;23;20420;-60
2023/01/25 05:32:45;;;;;;;25.33;13.40;;;2.60;48.90;;;;;;6033594;23;20176;-60
2023/01/25 05:35:11;;;;;;;22.73;11.40;;;2.60;48.50;;;;;;6033220;23;20448;-59
2023/01/25 05:37:38;;;;;;;27.63;12.37;;;2.50;48.70;;;;;;6034455;23;20420;-59
2023/01/25 05:40:06;;;;;;;25.00;11.73;;;2.60;48.90;;;;;;6032726;23;20764;-59
2023/01/25 05:42:33;;;;;;;24.10;12.33;;;2.60;48.70;;;;;;6033821;23;20987;-59
2023/01/25 05:44:59;;;;;;;23.27;11.33;;;2.50;48.80;;;;;;6033401;23;20436;-59
2023/01/25 05:47:27;;;;;;;25.73;12.40;;;2.50;48.70;;;;;;6033712;23;20435;-59
2023/01/25 05:49:54;;;;;;;33.10;15.03;;;2.50;48.90;;;;;;6033820;23;20462;-59
2023/01/25 05:52:21;;;;;;;28.50;14.10;;;2.50;48.90;;;;;;6034192;23;20427;-60
2023/01/25 05:54:48;;;;;;;28.37;14.70;;;2.60;49.00;;;;;;6033993;23;20444;-59
2023/01/25 05:57:16;;;;;;;25.77;12.13;;;2.60;49.00;;;;;;6034295;23;20427;-60
2023/01/25 05:59:43;;;;;;;33.30;14.60;;;2.60;48.90;;;;;;6033944;23;20420;-60
2023/01/25 06:02:09;;;;;;;28.90;14.07;;;2.70;49.00;;;;;;6033345;23;20443;-59
2023/01/25 06:04:37;;;;;;;28.20;13.07;;;2.70;48.80;;;;;;6033777;23;20447;-59
2023/01/25 06:07:04;;;;;;;28.10;13.10;;;2.70;48.60;;;;;;6033736;23;20750;-60
2023/01/25 06:09:31;;;;;;;29.60;13.67;;;2.70;48.60;;;;;;6034176;23;20420;-60
2023/01/25 06:11:57;;;;;;;30.23;14.77;;;2.70;48.50;;;;;;6034015;23;20432;-60
2023/01/25 06:14:24;;;;;;;29.70;13.87;;;2.80;48.50;;;;;;6033754;23;20467;-60
2023/01/25 06:16:51;;;;;;;30.27;15.27;;;2.70;48.40;;;;;;6033389;23;20502;-60
2023/01/25 06:19:17;;;;;;;33.60;14.93;;;2.80;48.40;;;;;;6036024;23;20435;-61
2023/01/25 06:21:45;;;;;;;32.90;15.33;;;2.70;48.40;;;;;;6036001;23;20420;-61
2023/01/25 06:24:12;;;;;;;28.23;14.77;;;2.80;48.40;;;;;;6036043;23;21114;-61
2023/01/25 06:26:39;;;;;;;27.97;13.07;;;2.80;48.40;;;;;;6034871;23;20423;-60
2023/01/25 06:29:06;;;;;;;29.13;13.50;;;2.80;48.00;;;;;;6036311;23;20423;-61
2023/01/25 06:31:33;;;;;;;28.47;14.67;;;2.70;48.20;;;;;;6034976;23;20443;-61
2023/01/25 06:34:03;;;;;;;28.40;13.03;;;2.70;48.30;;;;;;6036722;23;20497;-60
2023/01/25 06:36:30;;;;;;;31.43;14.83;;;2.70;48.40;;;;;;6033542;23;20439;-60
2023/01/25 06:38:58;;;;;;;34.00;14.07;;;2.70;48.30;;;;;;6033952;23;20427;-59
2023/01/25 06:41:25;;;;;;;32.40;16.07;;;2.70;48.30;;;;;;6035803;23;20755;-60
2023/01/25 06:43:52;;;;;;;32.37;14.70;;;2.60;48.40;;;;;;6035275;23;20444;-60
2023/01/25 06:46:20;;;;;;;29.30;14.00;;;2.60;48.60;;;;;;6035891;23;20442;-60
2023/01/25 06:48:46;;;;;;;32.47;14.27;;;2.60;48.70;;;;;;6035675;23;20420;-60
2023/01/25 06:51:14;;;;;;;29.83;14.47;;;2.50;49.00;;;;;;6035493;23;20424;-60
2023/01/25 06:53:43;;;;;;;30.80;13.90;;;2.50;49.00;;;;;;6034882;23;20431;-61
2023/01/25 06:56:12;;;;;;;28.20;13.37;;;2.50;49.10;;;;;;6035507;23;20449;-60
2023/01/25 06:58:40;;;;;;;31.00;12.70;;;2.50;49.10;;;;;;6034508;23;20906;-60
2023/01/25 07:01:10;;;;;;;36.07;14.47;;;2.40;49.40;;;;;;6035093;23;20442;-60
2023/01/25 07:03:37;;;;;;;30.10;13.77;;;2.30;50.30;;;;;;6062850;23;20442;-60
2023/01/25 07:06:06;;;;;;;30.80;13.33;;;2.30;50.00;;;;;;6061572;23;20442;-60
2023/01/25 07:08:33;;;;;;;27.00;13.00;;;2.20;50.20;;;;;;6063116;23;20430;-60
2023/01/25 07:11:03;;;;;;;32.00;13.60;;;2.20;50.10;;;;;;6061775;23;20448;-60
2023/01/25 07:13:33;;;;;;;31.87;12.13;;;2.00;50.50;;;;;;6034859;23;20978;-60
2023/01/25 07:16:01;;;;;;;30.37;13.13;;;2.00;50.60;;;;;;6035040;23;20769;-61
2023/01/25 07:18:29;;;;;;;25.83;11.87;;;2.00;50.60;;;;;;6034933;23;20427;-60
2023/01/25 07:21:03;;;;;;;27.43;13.07;;;1.80;51.50;;;;;;6035343;23;20555;-59
2023/01/25 07:23:31;;;;;;;23.17;10.97;;;1.90;51.20;;;;;;6034698;23;20912;-60
2023/01/25 07:25:59;;;;;;;27.07;13.07;;;1.90;50.90;;;;;;6034797;23;20476;-59
2023/01/25 07:28:25;;;;;;;38.67;19.00;;;1.90;50.90;;;;;;6033929;23;21017;-62
2023/01/25 07:30:54;;;;;;;27.37;13.17;;;1.80;51.10;;;;;;6031934;23;20578;-60
2023/01/25 07:33:20;;;;;;;26.00;12.10;;;1.80;51.00;;;;;;6035183;23;20420;-59
2023/01/25 07:35:49;;;;;;;24.17;11.97;;;1.70;51.30;;;;;;6034020;23;20448;-61
2023/01/25 07:38:16;;;;;;;27.60;12.43;;;1.80;51.10;;;;;;6035117;23;20530;-60
2023/01/25 07:40:43;;;;;;;23.23;11.63;;;1.70;51.10;;;;;;6031171;23;20448;-60
2023/01/25 07:43:10;;;;;;;22.27;10.67;;;1.70;51.00;;;;;;6035649;23;20420;-60
2023/01/25 07:45:37;;;;;;;28.33;13.23;;;1.80;50.80;;;;;;6044048;23;20437;-60
2023/01/25 07:48:08;;;;;;;24.13;11.10;;;1.80;50.40;;;;;;6033019;23;20428;-61
2023/01/25 07:50:35;;;;;;;24.27;11.37;;;1.90;50.40;;;;;;6035568;23;20444;-60
2023/01/25 07:53:02;;;;;;;26.83;12.43;;;1.90;50.10;;;;;;6044085;23;20752;-60
2023/01/25 07:55:28;;;;;;;22.77;10.53;;;2.00;50.00;;;;;;6035075;23;20813;-60
2023/01/25 07:57:55;;;;;;;24.33;11.33;;;2.00;49.80;;;;;;6034603;23;20420;-60
2023/01/25 08:00:23;;;;;;;22.77;10.83;;;2.10;49.90;;;;;;6032754;23;20443;-61
2023/01/25 08:02:50;;;;;;;22.23;10.63;;;2.20;49.70;;;;;;6035218;23;20487;-60
2023/01/25 08:05:19;;;;;;;22.47;11.00;;;2.20;49.50;;;;;;6034310;23;20427;-61
2023/01/25 08:07:47;;;;;;;19.97;10.33;;;2.30;49.30;;;;;;6035169;23;20416;-61
2023/01/25 08:10:14;;;;;;;23.03;10.40;;;2.20;48.70;;;;;;6035152;23;20428;-61
2023/01/25 08:12:45;;;;;;;25.50;12.37;;;2.20;48.50;;;;;;6035078;23;20427;-61
2023/01/25 08:15:12;;;;;;;24.50;11.13;;;2.30;48.50;;;;;;6044436;23;20432;-61
2023/01/25 08:17:39;;;;;;;28.67;11.80;;;2.20;48.30;;;;;;6034851;23;20432;-61
2023/01/25 08:20:07;;;;;;;22.47;9.47;;;2.10;48.30;;;;;;6042566;23;20607;-61
2023/01/25 08:22:44;;;;;;;24.27;10.73;;;2.20;48.20;;;;;;6029233;23;20499;-61
2023/01/25 08:25:11;;;;;;;20.00;10.37;;;2.10;48.20;;;;;;6052461;23;20451;-69
2023/01/25 08:27:37;;;;;;;24.10;11.40;;;2.10;48.40;;;;;;6063155;23;20419;-69
2023/01/25 08:30:05;;;;;;;22.23;10.00;;;2.10;48.40;;;;;;6062224;23;20446;-70
2023/01/25 08:32:32;;;;;;;23.50;11.20;;;2.10;48.70;;;;;;6061088;23;20439;-69
2023/01/25 08:34:59;;;;;;;22.90;10.43;;;2.20;48.50;;;;;;6037954;23;20447;-67
2023/01/25 08:37:28;;;;;;;22.73;11.60;;;2.10;48.50;;;;;;6038783;23;20481;-60
2023/01/25 08:39:58;;;;;;;22.00;10.10;;;2.10;48.40;;;;;;6062018;23;20403;-60
2023/01/25 08:42:25;;;;;;;22.80;10.67;;;2.10;48.30;;;;;;6062354;23;20408;-59
2023/01/25 08:44:52;;;;;;;23.93;10.70;;;2.10;48.50;;;;;;6063680;23;20759;-59
2023/01/25 08:47:18;;;;;;;26.93;11.03;;;2.10;48.60;;;;;;6052988;23;20441;-59
2023/01/25 08:49:45;;;;;;;25.57;11.30;;;2.10;48.50;;;;;;6033141;23;20431;-59
2023/01/25 08:52:13;;;;;;;23.47;11.37;;;2.10;48.90;;;;;;6032071;23;20933;-59
2023/01/25 08:54:43;;;;;;;24.13;11.20;;;2.10;48.80;;;;;;6033687;23;20451;-60
2023/01/25 08:57:11;;;;;;;25.43;11.27;;;2.10;48.90;;;;;;6032950;23;20813;-59
2023/01/25 08:59:37;;;;;;;25.00;12.20;;;2.10;49.00;;;;;;6034692;23;20431;-59
2023/01/25 09:02:04;;;;;;;26.10;12.20;;;2.10;49.10;;;;;;6033550;23;20809;-60
2023/01/25 09:04:31;;;;;;;25.37;11.70;;;2.00;49.10;;;;;;6031606;23;20423;-60
2023/01/25 09:06:57;;;;;;;22.70;11.47;;;2.00;49.30;;;;;;6034930;23;20424;-59
2023/01/25 09:09:24;;;;;;;25.17;11.50;;;2.00;49.00;;;;;;6033835;23;20420;-59
2023/01/25 09:11:51;;;;;;;29.03;10.47;;;1.90;49.20;;;;;;6031707;23;20456;-59
2023/01/25 09:14:19;;;;;;;20.47;10.60;;;1.90;49.20;;;;;;6033454;23;20519;-59
2023/01/25 09:16:46;;;;;;;24.97;10.20;;;1.90;49.40;;;;;;6034084;23;20440;-60
2023/01/25 09:19:13;;;;;;;23.67;10.57;;;1.90;49.20;;;;;;6034499;23;20424;-59
2023/01/25 09:21:40;;;;;;;21.63;10.33;;;1.90;49.50;;;;;;6032690;23;20424;-59
2023/01/25 09:24:07;;;;;;;21.07;10.20;;;1.90;49.30;;;;;;6032423;23;20423;-59
2023/01/25 09:26:36;;;;;;;29.13;11.50;;;1.90;49.20;;;;;;6033379;23;20486;-62
2023/01/25 09:29:03;;;;;;;19.60;10.07;;;2.00;49.20;;;;;;6041346;23;20444;-59
2023/01/25 09:31:32;;;;;;;22.47;11.67;;;2.00;49.20;;;;;;6032260;23;20440;-59
2023/01/25 09:33:58;;;;;;;23.60;10.77;;;2.00;49.30;;;;;;6031468;23;20492;-60
2023/01/25 09:36:25;;;;;;;28.27;13.10;;;2.10;49.30;;;;;;6032241;23;20860;-60
2023/01/25 09:38:52;;;;;;;27.47;13.10;;;2.10;49.30;;;;;;6033282;23;20448;-60
2023/01/25 09:41:32;;;;;;;26.30;12.40;;;2.10;49.20;;;;;;6033509;23;20420;-60
2023/01/25 09:44:11;;;;;;;25.70;11.43;;;2.10;49.10;;;;;;6032470;23;20405;-60
2023/01/25 09:46:41;;;;;;;22.30;10.87;;;2.20;49.10;;;;;;6034621;23;20401;-59
2023/01/25 09:49:24;;;;;;;26.57;12.83;;;2.20;48.90;;;;;;6031078;23;20491;-59
2023/01/25 09:52:05;;;;;;;28.00;13.70;;;2.10;49.10;;;;;;6031552;23;20946;-60
2023/01/25 09:54:40;;;;;;;30.47;15.67;;;2.10;49.10;;;;;;6033391;23;20412;-59
2023/01/25 09:57:13;;;;;;;30.50;14.47;;;2.20;49.10;;;;;;6033057;23;20483;-60
2023/01/25 09:59:41;;;;;;;29.90;14.10;;;2.30;49.30;;;;;;6034590;23;20405;-60
2023/01/25 10:02:25;;;;;;;32.73;15.63;;;2.40;49.00;;;;;;6031246;23;20440;-60
2023/01/25 10:04:54;;;;;;;30.60;13.80;;;2.40;49.00;;;;;;6032475;23;20408;-59
2023/01/25 10:07:26;;;;;;;28.47;14.27;;;2.40;48.70;;;;;;6032306;23;20435;-60
2023/01/25 10:09:57;;;;;;;26.47;12.07;;;2.50;48.70;;;;;;6033796;23;20408;-59
2023/01/25 10:12:26;;;;;;;29.40;12.10;;;2.50;48.20;;;;;;6033911;23;20405;-59
2023/01/25 10:14:54;;;;;;;28.60;14.10;;;2.50;48.00;;;;;;6032961;23;20511;-60
2023/01/25 10:17:31;;;;;;;25.17;11.50;;;2.50;48.10;;;;;;6034019;23;20447;-60
2023/01/25 10:20:09;;;;;;;26.07;12.50;;;2.50;48.00;;;;;;6033499;23;20404;-60
2023/01/25 10:22:42;;;;;;;25.90;12.33;;;2.60;48.10;;;;;;6032768;23;20405;-60
2023/01/25 10:25:24;;;;;;;24.33;11.67;;;2.60;48.10;;;;;;6042161;23;21159;-60
2023/01/25 10:28:09;;;;;;;23.20;10.30;;;2.70;47.80;;;;;;6030623;23;20432;-60
2023/01/25 10:30:42;;;;;;;27.03;13.43;;;2.70;47.10;;;;;;6031941;23;20499;-59
2023/01/25 10:33:15;;;;;;;23.93;11.67;;;2.70;46.60;;;;;;6032793;23;20503;-60
2023/01/25 10:35:45;;;;;;;23.03;11.43;;;2.70;46.80;;;;;;6033570;23;20880;-59
2023/01/25 10:38:18;;;;;;;25.87;11.63;;;2.70;46.40;;;;;;6032668;23;20523;-59
2023/01/25 10:40:48;;;;;;;26.37;12.40;;;2.60;46.60;;;;;;6033312;23;20937;-59
2023/01/25 10:43:18;;;;;;;23.33;11.30;;;2.60;46.80;;;;;;6031589;23;20415;-59
2023/01/25 10:45:46;;;;;;;25.97;12.60;;;2.60;46.80;;;;;;6033452;23;20400;-59
2023/01/25 10:48:19;;;;;;;28.87;13.63;;;2.60;47.10;;;;;;6032477;23;20440;-60
2023/01/25 10:50:48;;;;;;;28.57;13.37;;;2.70;47.10;;;;;;6034106;23;20411;-59
2023/01/25 10:53:30;;;;;;;29.67;14.63;;;2.70;47.20;;;;;;6031094;23;20422;-60
2023/01/25 10:56:18;;;;;;;30.93;12.97;;;2.70;47.20;;;;;;6032072;23;20423;-59
2023/01/25 10:58:46;;;;;;;28.53;13.80;;;2.80;46.80;;;;;;6032064;23;20687;-59
2023/01/25 11:01:24;;;;;;;25.73;12.17;;;2.90;46.50;;;;;;6033285;23;20447;-59
2023/01/25 11:03:52;;;;;;;23.10;11.80;;;2.90;46.30;;;;;;6033555;23;20460;-59
2023/01/25 11:06:31;;;;;;;21.80;10.50;;;2.80;45.90;;;;;;6045157;23;21002;-59
2023/01/25 11:08:58;;;;;;;26.37;12.40;;;2.80;46.20;;;;;;6033824;23;20447;-60
2023/01/25 11:11:31;;;;;;;23.10;10.17;;;2.90;46.20;;;;;;6035143;23;20427;-60
2023/01/25 11:13:57;;;;;;;21.03;9.43;;;2.90;46.10;;;;;;6032732;23;20408;-60
2023/01/25 11:16:33;;;;;;;19.70;9.63;;;2.90;45.80;;;;;;6034540;23;20454;-60
2023/01/25 11:19:02;;;;;;;21.50;9.87;;;2.90;45.00;;;;;;6033958;23;20447;-60
2023/01/25 11:21:30;;;;;;;20.07;10.90;;;2.90;44.90;;;;;;6034324;23;20424;-61
2023/01/25 11:24:03;;;;;;;25.97;12.67;;;2.90;44.90;;;;;;6033030;23;20459;-60
2023/01/25 11:26:31;;;;;;;18.03;9.10;;;2.90;45.10;;;;;;6033559;23;20421;-60
2023/01/25 11:29:13;;;;;;;20.70;11.63;;;2.80;44.50;;;;;;6034330;23;20443;-60
2023/01/25 11:31:44;;;;;;;20.60;10.40;;;2.80;44.90;;;;;;6033795;23;20463;-60
2023/01/25 11:34:14;;;;;;;28.00;12.03;;;2.70;45.00;;;;;;6033832;23;20812;-60
2023/01/25 11:36:57;;;;;;;29.60;13.40;;;2.60;44.80;;;;;;6033437;23;20432;-60
2023/01/25 11:39:40;;;;;;;22.90;10.83;;;2.60;45.30;;;;;;6034888;23;20460;-60
2023/01/25 11:42:20;;;;;;;22.03;12.60;;;2.50;45.60;;;;;;6033738;23;20408;-59
2023/01/25 11:45:03;;;;;;;23.83;12.13;;;2.40;45.80;;;;;;6034715;23;20407;-59
2023/01/25 11:47:51;;;;;;;28.20;11.67;;;2.30;46.50;;;;;;6034313;23;20845;-59
2023/01/25 11:50:27;;;;;;;25.10;12.70;;;2.30;46.50;;;;;;6034281;23;20408;-60
2023/01/25 11:53:33;;;;;;;26.57;10.97;;;2.20;46.50;;;;;;6034084;23;20404;-60
2023/01/25 11:56:07;;;;;;;25.50;12.20;;;2.10;47.00;;;;;;6033256;23;20456;-60
2023/01/25 11:58:47;;;;;;;37.23;13.63;;;2.10;47.10;;;;;;6032836;23;20459;-60
2023/01/25 12:01:23;;;;;;;24.00;13.03;;;2.10;47.20;;;;;;6033211;23;20440;-60
2023/01/25 12:04:33;;;;;;;25.60;12.40;;;2.10;47.40;;;;;;6035212;23;20404;-59
2023/01/25 12:07:03;;;;;;;24.93;12.60;;;2.10;47.60;;;;;;6034495;23;20400;-60
2023/01/25 12:09:40;;;;;;;30.53;14.50;;;2.20;47.40;;;;;;6034461;23;20499;-60
2023/01/25 12:12:15;;;;;;;27.00;12.43;;;2.30;47.40;;;;;;6034115;23;20415;-59
2023/01/25 12:14:57;;;;;;;19.13;10.60;;;2.30;47.40;;;;;;6034433;23;20400;-60
2023/01/25 12:17:36;;;;;;;29.00;13.53;;;2.30;47.10;;;;;;6033763;23;20483;-59
2023/01/25 12:20:30;;;;;;;26.33;11.67;;;2.30;47.10;;;;;;6033764;23;20427;-59
2023/01/25 12:23:25;;;;;;;27.37;12.10;;;2.30;47.10;;;;;;6033214;23;20420;-60
2023/01/25 12:26:04;;;;;;;24.87;11.30;;;2.30;46.90;;;;;;6034434;23;20462;-59
2023/01/25 12:28:34;;;;;;;26.53;13.87;;;2.20;47.00;;;;;;6034418;23;20432;-60
2023/01/25 12:31:07;;;;;;;31.53;12.27;;;2.20;47.20;;;;;;6032288;23;20973;-60
2023/01/25 12:33:40;;;;;;;26.70;12.90;;;2.20;47.00;;;;;;6033453;23;20403;-60
2023/01/25 12:36:13;;;;;;;27.70;13.20;;;2.20;47.20;;;;;;6033598;23;20744;-60
2023/01/25 12:38:48;;;;;;;27.60;12.67;;;2.30;47.30;;;;;;6034246;23;20452;-59
2023/01/25 12:41:25;;;;;;;29.67;12.50;;;2.30;47.30;;;;;;6034633;23;20853;-59
2023/01/25 12:43:57;;;;;;;26.07;12.03;;;2.40;47.20;;;;;;6035547;23;20404;-60
2023/01/25 12:46:29;;;;;;;29.70;13.10;;;2.40;47.00;;;;;;6033436;23;20415;-60
2023/01/25 12:49:01;;;;;;;31.83;16.40;;;2.40;47.00;;;;;;6033942;23;20782;-60
2023/01/25 12:51:34;;;;;;;29.67;13.60;;;2.40;46.90;;;;;;6034106;23;20965;-60